Time;durP1;ratioP1;P1;durP2;ratioP2;P2;SDS_P1;SDS_P2;PMS_P1;PMS_P2;Temp;Humidity;BMP_temperature;BMP_pressure;BME280_temperature;BME280_humidity;BME280_pressure;Samples;Min_cycle;Max_cycle;Signal;HPM_P1;HPM_P2
2023/08/19 00:00:30;;;;;;;10.30;9.50;;;30.40;71.20;;;;;;5036415;28;20463;-77
2023/08/19 00:02:58;;;;;;;12.60;10.47;;;30.40;71.10;;;;;;5036859;28;20464;-77
2023/08/19 00:05:26;;;;;;;11.80;10.30;;;30.40;71.20;;;;;;5037111;28;20439;-76
2023/08/19 00:07:55;;;;;;;11.80;9.73;;;30.40;70.90;;;;;;5031555;28;20432;-76
2023/08/19 00:10:23;;;;;;;9.63;8.83;;;30.30;71.20;;;;;;5039189;28;20546;-76
2023/08/19 00:12:52;;;;;;;10.73;9.83;;;30.40;71.20;;;;;;5041749;28;20422;-77
2023/08/19 00:15:20;;;;;;;10.50;9.60;;;30.40;71.20;;;;;;5038791;28;20526;-77
2023/08/19 00:17:47;;;;;;;11.40;9.70;;;30.40;71.10;;;;;;5034414;28;20455;-77
2023/08/19 00:20:15;;;;;;;10.33;9.40;;;30.30;70.90;;;;;;5043360;28;20434;-77
2023/08/19 00:22:43;;;;;;;10.17;9.13;;;30.30;71.00;;;;;;5039537;28;20427;-77
2023/08/19 00:25:12;;;;;;;15.83;9.90;;;30.30;71.00;;;;;;5035418;28;20528;-76
2023/08/19 00:27:40;;;;;;;10.37;9.37;;;30.30;70.90;;;;;;5037968;28;20435;-76
2023/08/19 00:30:09;;;;;;;10.87;9.77;;;30.30;70.90;;;;;;5035869;28;20515;-76
2023/08/19 00:32:37;;;;;;;10.30;9.10;;;30.30;71.00;;;;;;5037568;28;20430;-76
2023/08/19 00:35:05;;;;;;;9.90;9.10;;;30.30;71.00;;;;;;5040930;28;20455;-78
2023/08/19 00:37:35;;;;;;;10.03;9.23;;;30.30;70.90;;;;;;5038846;28;20451;-77
2023/08/19 00:40:04;;;;;;;10.63;9.10;;;30.30;70.90;;;;;;5042508;28;20886;-77
2023/08/19 00:42:33;;;;;;;10.00;9.20;;;30.30;70.80;;;;;;5035247;28;20423;-78
2023/08/19 00:45:01;;;;;;;10.10;9.30;;;30.30;70.70;;;;;;5040330;28;20516;-78
2023/08/19 00:47:29;;;;;;;11.30;9.63;;;30.30;70.80;;;;;;5040552;28;20476;-77
2023/08/19 00:49:58;;;;;;;10.93;9.50;;;30.30;70.80;;;;;;5032194;28;20443;-77
2023/08/19 00:52:26;;;;;;;10.87;9.80;;;30.30;70.90;;;;;;5032601;28;20446;-77
2023/08/19 00:54:54;;;;;;;10.30;9.30;;;30.30;70.80;;;;;;5032318;28;21007;-78
2023/08/19 00:57:24;;;;;;;9.67;8.70;;;30.30;70.80;;;;;;5031942;28;20424;-78
2023/08/19 00:59:53;;;;;;;10.23;9.23;;;30.30;70.70;;;;;;5031908;28;20431;-79
2023/08/19 01:02:23;;;;;;;10.60;9.40;;;30.30;70.60;;;;;;5032854;28;20467;-78
2023/08/19 01:04:51;;;;;;;10.17;9.27;;;30.20;70.50;;;;;;5031179;28;20511;-77
2023/08/19 01:07:23;;;;;;;10.23;8.43;;;30.20;70.50;;;;;;5031243;28;20509;-78
2023/08/19 01:09:56;;;;;;;9.33;8.50;;;30.20;70.50;;;;;;5031651;28;20475;-77
2023/08/19 01:12:28;;;;;;;10.20;9.17;;;30.20;70.60;;;;;;5031648;28;20410;-77
2023/08/19 01:15:04;;;;;;;10.80;9.67;;;30.20;70.60;;;;;;5031561;28;20497;-78
2023/08/19 01:17:31;;;;;;;9.93;9.13;;;30.20;70.50;;;;;;5031661;28;20439;-78
2023/08/19 01:20:00;;;;;;;10.27;9.27;;;30.20;70.60;;;;;;5031376;28;20482;-77
2023/08/19 01:22:32;;;;;;;10.00;9.20;;;30.20;70.60;;;;;;5030228;28;20444;-77
2023/08/19 01:25:01;;;;;;;11.40;9.17;;;30.20;70.40;;;;;;5032036;28;20506;-77
2023/08/19 01:27:30;;;;;;;9.77;8.90;;;30.10;70.30;;;;;;5023428;28;20430;-76
2023/08/19 01:29:58;;;;;;;11.63;9.47;;;30.20;70.50;;;;;;5032183;28;20519;-77
2023/08/19 01:32:26;;;;;;;9.90;9.00;;;30.20;70.40;;;;;;5031904;28;20428;-77
2023/08/19 01:34:54;;;;;;;9.93;9.00;;;30.20;70.30;;;;;;5032010;28;20502;-78
2023/08/19 01:37:29;;;;;;;9.50;8.50;;;30.10;70.20;;;;;;5032736;28;20470;-77
2023/08/19 01:39:58;;;;;;;10.37;9.40;;;30.20;70.10;;;;;;5031663;28;20435;-77
2023/08/19 01:42:27;;;;;;;10.10;9.20;;;30.20;70.10;;;;;;5037374;28;20426;-78
2023/08/19 01:44:55;;;;;;;9.97;9.17;;;30.10;70.00;;;;;;5031165;28;20534;-77
2023/08/19 01:47:23;;;;;;;10.17;9.17;;;30.10;69.90;;;;;;5020241;28;20487;-77
2023/08/19 01:49:51;;;;;;;10.60;9.70;;;30.10;69.90;;;;;;5037835;28;20447;-76
2023/08/19 01:52:19;;;;;;;10.77;9.70;;;30.10;69.90;;;;;;5031984;28;20562;-77
2023/08/19 01:54:48;;;;;;;11.83;10.63;;;30.00;69.70;;;;;;5038570;28;20435;-78
2023/08/19 01:57:16;;;;;;;11.73;9.90;;;30.10;69.90;;;;;;5050377;28;20542;-76
2023/08/19 01:59:46;;;;;;;15.87;14.20;;;30.10;69.70;;;;;;5035751;28;20945;-77
2023/08/19 02:02:13;;;;;;;15.23;13.73;;;30.00;69.70;;;;;;5033046;28;20459;-77
2023/08/19 02:04:42;;;;;;;14.37;12.03;;;30.00;69.60;;;;;;5030582;28;20503;-77
2023/08/19 02:07:10;;;;;;;18.70;15.47;;;30.00;69.50;;;;;;5030900;28;20453;-77
2023/08/19 02:09:38;;;;;;;19.67;14.63;;;30.00;69.70;;;;;;5038933;28;20507;-77
2023/08/19 02:12:07;;;;;;;14.53;13.17;;;30.00;69.50;;;;;;5029580;28;20475;-78
2023/08/19 02:14:35;;;;;;;14.57;13.17;;;30.00;69.50;;;;;;5023547;28;20432;-76
2023/08/19 02:17:04;;;;;;;17.83;14.33;;;30.00;69.40;;;;;;5031327;28;20493;-77
2023/08/19 02:19:32;;;;;;;16.07;14.50;;;30.00;69.40;;;;;;5031770;28;20485;-77
2023/08/19 02:22:00;;;;;;;17.43;15.73;;;29.90;69.30;;;;;;5031650;28;20542;-77
2023/08/19 02:24:28;;;;;;;16.67;15.03;;;30.00;69.30;;;;;;5039715;28;20955;-77
2023/08/19 02:26:55;;;;;;;17.83;15.53;;;29.90;69.30;;;;;;5033196;28;20497;-77
2023/08/19 02:29:23;;;;;;;19.67;17.67;;;29.90;69.20;;;;;;5032460;28;20482;-77
2023/08/19 02:31:51;;;;;;;16.87;15.20;;;30.00;69.00;;;;;;5043262;28;20505;-77
2023/08/19 02:34:20;;;;;;;16.83;15.13;;;29.90;69.10;;;;;;5033365;28;20475;-77
2023/08/19 02:36:48;;;;;;;20.87;17.77;;;29.90;69.20;;;;;;5031204;28;20904;-77
2023/08/19 02:39:16;;;;;;;16.47;14.87;;;29.90;69.20;;;;;;5029048;28;20441;-77
2023/08/19 02:41:44;;;;;;;20.93;16.50;;;29.90;69.00;;;;;;5032847;28;20455;-77
2023/08/19 02:44:12;;;;;;;17.23;15.27;;;29.90;68.90;;;;;;5028801;28;20558;-78
2023/08/19 02:46:40;;;;;;;18.20;16.43;;;29.90;69.00;;;;;;5032525;28;20585;-77
2023/08/19 02:49:08;;;;;;;19.67;17.57;;;29.90;68.90;;;;;;5031400;28;20417;-78
2023/08/19 02:51:37;;;;;;;17.73;15.93;;;29.90;69.00;;;;;;5029753;28;20517;-76
2023/08/19 02:54:06;;;;;;;17.73;15.93;;;29.90;68.70;;;;;;5033276;28;20522;-75
2023/08/19 02:56:33;;;;;;;18.87;17.07;;;29.90;68.90;;;;;;5034191;28;20493;-77
2023/08/19 02:59:02;;;;;;;16.70;14.93;;;29.90;69.00;;;;;;5037592;28;20414;-75
2023/08/19 03:01:29;;;;;;;17.23;15.53;;;29.90;69.60;;;;;;5034721;28;20537;-76
2023/08/19 03:03:58;;;;;;;18.37;16.63;;;29.90;68.70;;;;;;5033888;28;20402;-77
2023/08/19 03:06:26;;;;;;;17.20;15.60;;;29.90;68.60;;;;;;5035168;28;20476;-77
2023/08/19 03:08:55;;;;;;;17.00;15.30;;;29.90;68.60;;;;;;5037890;28;20450;-76
2023/08/19 03:11:23;;;;;;;20.90;16.37;;;29.80;68.50;;;;;;5035064;28;20438;-76
2023/08/19 03:13:51;;;;;;;18.30;15.60;;;29.80;68.60;;;;;;5035783;28;20497;-76
2023/08/19 03:16:19;;;;;;;16.20;14.70;;;29.90;68.50;;;;;;5037916;28;20996;-78
2023/08/19 03:18:47;;;;;;;17.33;15.53;;;29.90;68.50;;;;;;5047606;28;20440;-77
2023/08/19 03:21:15;;;;;;;15.30;13.70;;;29.80;68.40;;;;;;5046734;28;20468;-77
2023/08/19 03:23:43;;;;;;;15.90;14.30;;;29.80;68.30;;;;;;5054125;28;20440;-77
2023/08/19 03:26:12;;;;;;;15.57;13.97;;;29.80;68.50;;;;;;5050817;28;20481;-77
2023/08/19 03:28:40;;;;;;;16.53;14.83;;;29.80;68.30;;;;;;5045107;28;20410;-76
2023/08/19 03:31:08;;;;;;;15.27;13.77;;;29.80;68.50;;;;;;5046987;28;20456;-76
2023/08/19 03:33:38;;;;;;;14.60;13.10;;;29.80;68.40;;;;;;5045455;28;20455;-77
2023/08/19 03:36:06;;;;;;;15.67;14.13;;;29.80;68.30;;;;;;5055323;28;20470;-77
2023/08/19 03:38:34;;;;;;;14.73;13.43;;;29.80;68.40;;;;;;5058977;28;20467;-77
2023/08/19 03:41:02;;;;;;;15.33;13.93;;;29.80;68.20;;;;;;5054283;28;20990;-77
2023/08/19 03:43:32;;;;;;;16.60;14.63;;;29.80;68.20;;;;;;5041892;28;20484;-77
2023/08/19 03:46:00;;;;;;;15.93;13.70;;;29.80;68.10;;;;;;5045387;28;20606;-77
2023/08/19 03:48:27;;;;;;;14.27;12.77;;;29.80;68.10;;;;;;5036433;28;20444;-76
2023/08/19 03:50:55;;;;;;;15.30;13.70;;;29.80;68.20;;;;;;5033373;28;20460;-77
2023/08/19 03:53:23;;;;;;;14.73;13.33;;;29.80;68.20;;;;;;5032657;28;20422;-77
2023/08/19 03:55:51;;;;;;;15.37;13.87;;;29.70;68.20;;;;;;5032813;28;20420;-77
2023/08/19 03:58:20;;;;;;;14.80;13.37;;;29.80;68.10;;;;;;5032260;28;20510;-76
2023/08/19 04:00:49;;;;;;;15.10;13.70;;;29.70;68.10;;;;;;5052727;23;20434;-76
2023/08/19 04:03:16;;;;;;;14.87;13.00;;;29.70;68.00;;;;;;5031207;28;20461;-76
2023/08/19 04:05:44;;;;;;;14.70;12.57;;;29.70;68.00;;;;;;5027903;28;20499;-76
2023/08/19 04:08:13;;;;;;;14.00;12.70;;;29.80;67.80;;;;;;5032378;28;20463;-77
2023/08/19 04:10:40;;;;;;;13.90;12.50;;;29.70;67.80;;;;;;5023925;28;20465;-76
2023/08/19 04:13:09;;;;;;;13.53;12.40;;;29.80;67.90;;;;;;5032174;28;20446;-77
2023/08/19 04:15:36;;;;;;;14.70;13.40;;;29.70;67.80;;;;;;5032336;28;20988;-76
2023/08/19 04:18:07;;;;;;;14.77;13.40;;;29.70;67.70;;;;;;5032665;28;20448;-77
2023/08/19 04:20:37;;;;;;;13.90;12.50;;;29.70;67.70;;;;;;5026822;28;20460;-76
2023/08/19 04:23:05;;;;;;;13.93;12.53;;;29.70;67.80;;;;;;5032376;28;20444;-76
2023/08/19 04:25:33;;;;;;;14.00;12.60;;;29.70;67.70;;;;;;5031980;28;20481;-76
2023/08/19 04:28:01;;;;;;;14.33;12.70;;;29.70;67.70;;;;;;5032220;28;20440;-76
2023/08/19 04:30:29;;;;;;;14.20;12.80;;;29.70;67.70;;;;;;5032003;28;20522;-76
2023/08/19 04:32:58;;;;;;;13.70;12.50;;;29.70;67.70;;;;;;5032388;28;20440;-77
2023/08/19 04:35:28;;;;;;;13.00;11.90;;;29.70;67.70;;;;;;5031198;28;20553;-77
2023/08/19 04:37:56;;;;;;;14.53;13.03;;;29.70;67.50;;;;;;5030784;28;20501;-77
2023/08/19 04:40:24;;;;;;;13.83;12.50;;;29.70;67.40;;;;;;5027143;28;20498;-77
2023/08/19 04:42:52;;;;;;;14.63;13.30;;;29.70;67.40;;;;;;5029692;28;20910;-76
2023/08/19 04:45:20;;;;;;;13.13;11.77;;;29.70;67.40;;;;;;5031965;28;20445;-77
2023/08/19 04:47:48;;;;;;;14.00;12.80;;;29.70;67.20;;;;;;5028433;28;20428;-77
2023/08/19 04:50:16;;;;;;;13.07;11.73;;;29.70;67.30;;;;;;5021936;28;20415;-76
2023/08/19 04:52:45;;;;;;;14.50;12.10;;;29.70;67.30;;;;;;5011499;28;20447;-77
2023/08/19 04:55:14;;;;;;;13.80;12.37;;;29.80;67.50;;;;;;5026987;28;20475;-77
2023/08/19 04:57:43;;;;;;;13.70;12.50;;;29.70;67.00;;;;;;5031626;28;20452;-77
2023/08/19 05:00:13;;;;;;;13.70;12.33;;;29.80;67.30;;;;;;5031758;28;20456;-77
2023/08/19 05:02:41;;;;;;;14.20;12.80;;;29.70;67.10;;;;;;5031011;28;20972;-76
2023/08/19 05:05:09;;;;;;;14.00;12.60;;;29.70;67.00;;;;;;5025154;28;20508;-77
2023/08/19 05:07:37;;;;;;;14.17;12.87;;;29.80;67.10;;;;;;5026361;28;21055;-77
2023/08/19 05:10:07;;;;;;;13.33;12.03;;;29.80;67.00;;;;;;5026134;28;20547;-76
2023/08/19 05:12:35;;;;;;;13.23;11.93;;;29.70;66.90;;;;;;5029276;28;20442;-77
2023/08/19 05:15:04;;;;;;;13.70;12.40;;;29.80;66.90;;;;;;5031064;28;20538;-76
2023/08/19 05:17:32;;;;;;;13.70;12.40;;;29.70;66.90;;;;;;5031210;28;20538;-76
2023/08/19 05:20:00;;;;;;;13.10;11.80;;;29.80;66.80;;;;;;5031435;28;20509;-76
2023/08/19 05:22:28;;;;;;;14.30;12.97;;;29.70;66.40;;;;;;5030346;28;20498;-76
2023/08/19 05:24:56;;;;;;;13.40;12.20;;;29.80;67.10;;;;;;5030401;28;20531;-76
2023/08/19 05:27:25;;;;;;;13.23;11.93;;;29.70;66.60;;;;;;5031168;28;20502;-76
2023/08/19 05:29:53;;;;;;;13.60;12.30;;;29.80;66.80;;;;;;5031013;28;20505;-76
2023/08/19 05:32:21;;;;;;;13.37;12.07;;;29.70;66.70;;;;;;5031034;28;20543;-76
2023/08/19 05:34:49;;;;;;;13.63;12.40;;;29.80;66.70;;;;;;5031068;28;20527;-76
2023/08/19 05:37:16;;;;;;;14.33;12.83;;;29.80;66.50;;;;;;5031221;28;20495;-77
2023/08/19 05:39:44;;;;;;;14.23;12.83;;;29.80;66.50;;;;;;5031137;28;20478;-76
2023/08/19 05:42:12;;;;;;;13.93;12.60;;;29.80;66.40;;;;;;5029507;28;20911;-77
2023/08/19 05:44:42;;;;;;;13.77;12.37;;;29.80;66.30;;;;;;5030580;28;20449;-77
2023/08/19 05:47:10;;;;;;;14.20;12.80;;;29.80;66.30;;;;;;5030455;28;20986;-76
2023/08/19 05:49:38;;;;;;;13.57;12.27;;;29.80;66.50;;;;;;5030731;28;20436;-76
2023/08/19 05:52:06;;;;;;;13.60;12.30;;;29.80;66.20;;;;;;5026218;28;20507;-76
2023/08/19 05:54:34;;;;;;;13.83;12.40;;;29.80;66.30;;;;;;5028136;28;20444;-76
2023/08/19 05:57:02;;;;;;;13.17;12.00;;;29.80;66.20;;;;;;5030964;28;20531;-77
2023/08/19 05:59:29;;;;;;;13.67;12.37;;;29.80;66.40;;;;;;5014431;28;20540;-76
2023/08/19 06:01:59;;;;;;;12.50;11.40;;;29.90;66.10;;;;;;5022511;28;20471;-77
2023/08/19 06:04:27;;;;;;;13.90;12.60;;;29.90;66.00;;;;;;5030828;28;20453;-77
2023/08/19 06:06:55;;;;;;;13.67;12.37;;;29.90;65.90;;;;;;5030814;28;20495;-76
2023/08/19 06:09:23;;;;;;;13.70;12.50;;;29.90;66.10;;;;;;5030634;28;20501;-77
2023/08/19 06:11:52;;;;;;;13.30;12.10;;;29.90;66.30;;;;;;5029240;28;20510;-77
2023/08/19 06:14:20;;;;;;;13.47;11.63;;;29.90;65.80;;;;;;5029479;28;20913;-76
2023/08/19 06:16:47;;;;;;;13.97;12.67;;;29.90;65.80;;;;;;5030565;28;20498;-76
2023/08/19 06:19:17;;;;;;;14.67;12.87;;;29.90;65.70;;;;;;5030593;28;20480;-76
2023/08/19 06:21:44;;;;;;;14.00;12.70;;;30.00;65.90;;;;;;5025850;28;20474;-77
2023/08/19 06:24:12;;;;;;;14.03;12.73;;;30.00;65.70;;;;;;5030106;28;20566;-77
2023/08/19 06:26:40;;;;;;;14.07;12.67;;;30.00;65.70;;;;;;5029789;28;20561;-76
2023/08/19 06:29:08;;;;;;;13.33;12.03;;;30.00;65.80;;;;;;5032684;28;20455;-77
2023/08/19 06:31:36;;;;;;;14.10;12.70;;;30.10;65.80;;;;;;5033678;28;20488;-76
2023/08/19 06:34:05;;;;;;;13.07;11.97;;;30.00;65.60;;;;;;5034559;28;20458;-76
2023/08/19 06:36:35;;;;;;;13.50;12.10;;;30.10;65.60;;;;;;5026450;28;20450;-76
2023/08/19 06:39:05;;;;;;;13.73;12.40;;;30.20;65.50;;;;;;5034268;28;20494;-77
2023/08/19 06:41:35;;;;;;;14.47;13.07;;;30.20;65.50;;;;;;5034200;28;20438;-77
2023/08/19 06:44:03;;;;;;;14.50;13.10;;;30.20;65.60;;;;;;5026687;28;20449;-77
2023/08/19 06:46:32;;;;;;;14.37;12.87;;;30.20;65.50;;;;;;5032654;28;20575;-77
2023/08/19 06:49:00;;;;;;;16.30;12.27;;;30.20;65.50;;;;;;5033217;28;20451;-76
2023/08/19 06:51:29;;;;;;;13.63;12.23;;;30.20;65.40;;;;;;5033840;28;20542;-76
2023/08/19 06:53:58;;;;;;;14.80;13.27;;;30.30;65.40;;;;;;5033358;28;20470;-77
2023/08/19 06:56:30;;;;;;;15.43;13.27;;;30.30;65.50;;;;;;5033767;28;20463;-77
2023/08/19 06:59:03;;;;;;;14.40;13.00;;;30.30;65.30;;;;;;5034235;28;20517;-77
2023/08/19 07:01:32;;;;;;;15.77;12.80;;;30.40;65.30;;;;;;5033910;28;20472;-77
2023/08/19 07:04:00;;;;;;;15.43;13.93;;;30.50;65.70;;;;;;5033484;28;20764;-77
2023/08/19 07:06:29;;;;;;;17.30;12.33;;;30.50;65.40;;;;;;5018274;28;20806;-77
2023/08/19 07:08:59;;;;;;;13.60;12.40;;;30.60;65.30;;;;;;5013681;28;20532;-77
2023/08/19 07:11:27;;;;;;;13.03;11.77;;;30.70;64.70;;;;;;5013824;28;20547;-77
2023/08/19 07:13:56;;;;;;;13.40;12.10;;;30.80;64.30;;;;;;5013637;28;20419;-78
2023/08/19 07:16:24;;;;;;;14.40;13.00;;;30.80;63.90;;;;;;5013173;28;20473;-77
2023/08/19 07:18:52;;;;;;;14.53;12.30;;;30.90;63.90;;;;;;5031774;28;20454;-77
2023/08/19 07:21:21;;;;;;;13.80;12.50;;;30.80;63.70;;;;;;5026843;28;20463;-77
2023/08/19 07:23:49;;;;;;;14.23;12.50;;;30.90;63.80;;;;;;5031525;28;20875;-76
2023/08/19 07:26:21;;;;;;;14.43;12.90;;;30.90;63.70;;;;;;5031888;28;20429;-77
2023/08/19 07:28:50;;;;;;;15.17;13.57;;;30.90;64.00;;;;;;5031677;28;20491;-77
2023/08/19 07:31:19;;;;;;;14.03;12.63;;;30.90;63.90;;;;;;5032380;28;20487;-77
2023/08/19 07:33:46;;;;;;;13.97;12.60;;;30.90;63.80;;;;;;5031385;28;20534;-77
2023/08/19 07:36:14;;;;;;;13.47;12.27;;;30.90;64.20;;;;;;5031059;28;20531;-76
2023/08/19 07:38:42;;;;;;;13.70;12.50;;;31.00;64.00;;;;;;5032988;28;20538;-76
2023/08/19 07:41:10;;;;;;;13.27;12.07;;;31.10;63.60;;;;;;5033686;28;20434;-77
2023/08/19 07:43:39;;;;;;;15.70;12.67;;;31.10;63.40;;;;;;5033707;28;20410;-76
2023/08/19 07:46:06;;;;;;;13.17;11.80;;;31.10;63.30;;;;;;5033993;28;20443;-76
2023/08/19 07:48:34;;;;;;;14.53;11.90;;;31.30;63.30;;;;;;5033704;28;20483;-76
2023/08/19 07:51:02;;;;;;;12.97;11.80;;;31.40;63.10;;;;;;5033981;28;20459;-76
2023/08/19 07:53:30;;;;;;;12.07;11.07;;;31.40;62.60;;;;;;5033460;28;20890;-76
2023/08/19 07:55:57;;;;;;;13.47;12.27;;;31.50;62.30;;;;;;5033201;28;20529;-77
2023/08/19 07:58:26;;;;;;;13.57;12.20;;;31.60;62.10;;;;;;5033468;28;20414;-76
2023/08/19 08:00:55;;;;;;;12.90;11.70;;;31.70;61.90;;;;;;5033262;28;20499;-76
2023/08/19 08:03:23;;;;;;;14.00;12.70;;;31.80;61.90;;;;;;5033071;28;20531;-76
2023/08/19 08:05:51;;;;;;;13.27;12.00;;;31.80;61.40;;;;;;5031154;28;20446;-75
2023/08/19 08:08:19;;;;;;;12.37;11.13;;;31.90;61.10;;;;;;5033081;28;20482;-76
2023/08/19 08:10:47;;;;;;;11.53;10.53;;;32.10;60.90;;;;;;5032870;28;20455;-76
2023/08/19 08:13:15;;;;;;;13.13;12.03;;;32.10;60.40;;;;;;5033555;28;20870;-75
2023/08/19 08:15:43;;;;;;;12.33;11.13;;;32.10;60.10;;;;;;5032406;28;20497;-77
2023/08/19 08:18:12;;;;;;;12.90;11.70;;;32.20;60.30;;;;;;5024683;28;20467;-76
2023/08/19 08:20:40;;;;;;;12.50;11.40;;;32.20;60.10;;;;;;5032906;28;20563;-76
2023/08/19 08:23:08;;;;;;;12.10;11.00;;;32.30;60.00;;;;;;5027888;28;20525;-76
2023/08/19 08:25:37;;;;;;;12.50;11.30;;;32.30;59.80;;;;;;5032978;28;20534;-76
2023/08/19 08:28:07;;;;;;;12.23;11.20;;;32.20;59.70;;;;;;5032754;28;20472;-75
2023/08/19 08:30:35;;;;;;;13.00;11.70;;;32.20;60.40;;;;;;5032899;28;20443;-77
2023/08/19 08:33:04;;;;;;;12.40;11.30;;;32.10;59.80;;;;;;5032137;28;20498;-76
2023/08/19 08:35:33;;;;;;;12.20;11.13;;;32.20;59.90;;;;;;5032735;28;20423;-77
2023/08/19 08:38:01;;;;;;;12.87;11.70;;;32.20;59.80;;;;;;5032999;28;20510;-76
2023/08/19 08:40:30;;;;;;;12.50;11.23;;;32.20;59.80;;;;;;5032347;28;20471;-76
2023/08/19 08:42:58;;;;;;;13.27;11.87;;;32.20;59.80;;;;;;5033026;28;20447;-77
2023/08/19 08:45:27;;;;;;;12.00;10.87;;;32.20;59.60;;;;;;5024882;28;20799;-76
2023/08/19 08:47:55;;;;;;;12.33;11.17;;;32.30;59.70;;;;;;5032880;28;20842;-76
2023/08/19 08:50:23;;;;;;;12.73;11.47;;;32.30;59.60;;;;;;5026057;28;20454;-77
2023/08/19 08:52:52;;;;;;;12.27;11.07;;;32.30;59.60;;;;;;5024574;28;20508;-77
2023/08/19 08:55:20;;;;;;;11.60;10.70;;;32.30;59.50;;;;;;5025092;28;20432;-76
2023/08/19 08:57:48;;;;;;;12.53;11.40;;;32.30;59.50;;;;;;5016236;28;20472;-76
2023/08/19 09:00:16;;;;;;;12.97;11.73;;;32.30;59.40;;;;;;5012814;28;20539;-76
2023/08/19 09:02:45;;;;;;;12.30;11.30;;;32.30;59.60;;;;;;5019788;28;20456;-76
2023/08/19 09:05:13;;;;;;;11.57;10.47;;;32.30;59.40;;;;;;5032888;28;20426;-76
2023/08/19 09:07:41;;;;;;;12.10;11.10;;;32.30;59.60;;;;;;5032757;28;21098;-76
2023/08/19 09:10:13;;;;;;;12.30;10.90;;;32.30;59.50;;;;;;5029090;28;20539;-76
2023/08/19 09:12:41;;;;;;;12.03;10.83;;;32.30;59.40;;;;;;5022412;28;20483;-76
2023/08/19 09:15:15;;;;;;;11.77;10.60;;;32.30;59.50;;;;;;5023772;28;20441;-77
2023/08/19 09:17:46;;;;;;;12.27;11.17;;;32.30;59.20;;;;;;5024480;28;20470;-77
2023/08/19 09:20:21;;;;;;;11.63;10.53;;;32.30;59.20;;;;;;5032149;28;20454;-76
2023/08/19 09:22:54;;;;;;;11.10;10.20;;;32.30;59.10;;;;;;5028087;28;20443;-77
2023/08/19 09:25:24;;;;;;;11.70;10.70;;;32.30;59.00;;;;;;5025072;28;20439;-77
2023/08/19 09:27:56;;;;;;;12.30;11.10;;;32.30;59.00;;;;;;5024048;28;20538;-77
2023/08/19 09:30:32;;;;;;;11.87;10.87;;;32.40;59.00;;;;;;5031796;28;20535;-77
2023/08/19 09:33:02;;;;;;;12.10;10.87;;;32.40;59.00;;;;;;5023630;28;20436;-77
2023/08/19 09:35:35;;;;;;;11.73;10.70;;;32.40;59.00;;;;;;5031224;28;21000;-78
2023/08/19 09:38:29;;;;;;;11.93;11.00;;;32.40;58.90;;;;;;5029646;28;20420;-77
2023/08/19 09:41:04;;;;;;;11.80;10.83;;;32.40;58.90;;;;;;5028640;28;20463;-77
2023/08/19 09:43:41;;;;;;;11.40;10.60;;;32.40;58.90;;;;;;5031764;28;20428;-77
2023/08/19 09:46:13;;;;;;;12.60;11.47;;;32.40;58.80;;;;;;5021045;28;20432;-76
2023/08/19 09:48:53;;;;;;;11.50;10.40;;;32.50;58.80;;;;;;5026454;28;20466;-77
2023/08/19 09:51:25;;;;;;;10.73;9.83;;;32.50;58.60;;;;;;5031832;28;20458;-77
2023/08/19 09:53:55;;;;;;;11.90;10.87;;;32.60;58.60;;;;;;5027933;28;20468;-77
2023/08/19 09:56:33;;;;;;;11.03;10.23;;;32.70;58.50;;;;;;5030811;28;20454;-76
2023/08/19 09:59:01;;;;;;;12.40;11.10;;;32.70;58.30;;;;;;5031669;28;20513;-77
2023/08/19 10:01:34;;;;;;;11.00;10.10;;;32.70;58.30;;;;;;5033206;28;20977;-76
2023/08/19 10:04:02;;;;;;;11.40;10.43;;;32.80;58.10;;;;;;5026481;28;20441;-76
2023/08/19 10:06:31;;;;;;;11.40;10.37;;;32.90;58.00;;;;;;5016174;28;20440;-76
2023/08/19 10:09:04;;;;;;;11.07;10.13;;;32.90;57.90;;;;;;5032966;28;21023;-76
2023/08/19 10:11:34;;;;;;;11.17;10.10;;;33.00;57.90;;;;;;5034935;28;20483;-76
2023/08/19 10:14:07;;;;;;;10.77;9.93;;;33.00;57.70;;;;;;5034957;28;20439;-76
2023/08/19 10:16:39;;;;;;;11.87;10.77;;;33.00;57.80;;;;;;5035529;28;20440;-76
2023/08/19 10:19:07;;;;;;;11.90;10.80;;;32.90;57.70;;;;;;5035628;28;20471;-76
2023/08/19 10:21:36;;;;;;;11.40;10.57;;;32.80;57.90;;;;;;5035789;28;20517;-76
2023/08/19 10:24:05;;;;;;;11.70;10.77;;;32.80;58.10;;;;;;5035835;28;20440;-76
2023/08/19 10:26:36;;;;;;;12.00;10.97;;;32.80;58.30;;;;;;5030659;28;20548;-76
2023/08/19 10:29:11;;;;;;;11.27;10.37;;;32.70;58.30;;;;;;5032353;28;20917;-75
2023/08/19 10:31:42;;;;;;;14.63;11.40;;;32.70;58.50;;;;;;5035393;28;20467;-76
2023/08/19 10:34:11;;;;;;;10.90;9.97;;;32.70;58.60;;;;;;5033543;28;20434;-76
2023/08/19 10:36:40;;;;;;;12.93;11.73;;;32.70;58.70;;;;;;5034846;28;20440;-76
2023/08/19 10:39:15;;;;;;;12.50;11.40;;;32.70;58.80;;;;;;5034894;28;20463;-76
2023/08/19 10:41:44;;;;;;;10.90;10.00;;;32.70;58.80;;;;;;5034909;28;20455;-76
2023/08/19 10:44:14;;;;;;;12.57;11.37;;;32.70;58.90;;;;;;5034694;28;20487;-76
2023/08/19 10:46:43;;;;;;;11.83;10.77;;;32.70;58.90;;;;;;5034319;28;20455;-76
2023/08/19 10:49:13;;;;;;;12.47;11.27;;;32.70;58.90;;;;;;5034690;28;20582;-76
2023/08/19 10:51:53;;;;;;;12.73;11.60;;;32.70;59.00;;;;;;5027022;28;20501;-76
2023/08/19 10:54:29;;;;;;;15.93;13.17;;;32.70;58.90;;;;;;5027196;28;20432;-77
2023/08/19 10:57:15;;;;;;;15.67;14.03;;;32.60;61.80;;;;;;5036446;28;20462;-78
2023/08/19 10:59:44;;;;;;;15.70;13.67;;;32.20;63.70;;;;;;5022102;28;20455;-79
2023/08/19 11:02:12;;;;;;;15.90;14.30;;;32.10;65.20;;;;;;5022952;28;20490;-77
2023/08/19 11:04:47;;;;;;;17.40;14.30;;;31.90;66.90;;;;;;5028908;28;20475;-77
2023/08/19 11:07:16;;;;;;;17.57;14.40;;;31.90;68.10;;;;;;5035035;28;20492;-77
2023/08/19 11:09:48;;;;;;;16.57;14.87;;;31.90;68.60;;;;;;5028738;28;20475;-76
2023/08/19 11:12:19;;;;;;;16.87;15.07;;;31.80;69.80;;;;;;5025683;28;20813;-77
2023/08/19 11:14:48;;;;;;;16.17;14.43;;;31.80;69.80;;;;;;5034304;28;20454;-76
2023/08/19 11:17:27;;;;;;;20.00;14.80;;;31.90;70.70;;;;;;5032922;28;20965;-77
2023/08/19 11:20:07;;;;;;;16.47;14.77;;;31.80;70.40;;;;;;5015836;28;20444;-77
2023/08/19 11:22:52;;;;;;;18.60;15.30;;;31.90;70.40;;;;;;5015579;28;20494;-76
2023/08/19 11:25:20;;;;;;;15.20;13.80;;;31.70;71.80;;;;;;5017058;28;20460;-76
2023/08/19 11:27:51;;;;;;;16.53;13.70;;;31.70;72.20;;;;;;5034737;28;20455;-75
2023/08/19 11:30:26;;;;;;;15.77;14.10;;;31.70;72.70;;;;;;5023597;28;20991;-76
2023/08/19 11:32:54;;;;;;;15.40;13.90;;;31.50;73.00;;;;;;5029920;28;20444;-76
2023/08/19 11:35:22;;;;;;;16.63;14.63;;;31.40;74.30;;;;;;5034369;28;20550;-75
2023/08/19 11:37:51;;;;;;;18.93;14.60;;;31.30;74.70;;;;;;5033344;28;20550;-77
2023/08/19 11:40:19;;;;;;;16.70;14.00;;;30.80;78.20;;;;;;5035036;28;20535;-76
2023/08/19 11:43:06;;;;;;;20.47;15.50;;;30.50;80.40;;;;;;5033196;28;20421;-76
2023/08/19 11:45:36;;;;;;;16.70;14.90;;;30.50;82.00;;;;;;5015090;28;20396;-76
2023/08/19 11:48:05;;;;;;;20.93;14.30;;;30.40;82.90;;;;;;5028816;28;20455;-76
2023/08/19 11:50:35;;;;;;;17.53;14.73;;;30.20;84.50;;;;;;5033607;28;20468;-76
2023/08/19 11:53:03;;;;;;;16.80;14.07;;;30.20;85.80;;;;;;5035833;28;20460;-78
2023/08/19 11:55:32;;;;;;;17.40;14.23;;;30.30;86.70;;;;;;5034802;28;20451;-77
2023/08/19 11:58:03;;;;;;;17.07;14.80;;;30.20;86.20;;;;;;5034819;28;20413;-76
2023/08/19 12:00:33;;;;;;;22.57;13.87;;;30.20;86.30;;;;;;5034653;28;20868;-76
2023/08/19 12:03:02;;;;;;;15.80;14.00;;;30.10;87.60;;;;;;5034726;28;20473;-75
2023/08/19 12:05:30;;;;;;;17.10;13.50;;;30.20;87.00;;;;;;5034802;28;20433;-76
2023/08/19 12:07:58;;;;;;;16.87;14.20;;;30.10;86.80;;;;;;5034535;28;20980;-75
2023/08/19 12:10:39;;;;;;;18.43;14.10;;;30.00;87.70;;;;;;5034648;28;20509;-76
2023/08/19 12:13:07;;;;;;;16.87;14.17;;;30.20;88.10;;;;;;5036533;28;20489;-76
2023/08/19 12:15:36;;;;;;;17.13;15.33;;;29.30;91.90;;;;;;5030290;28;20429;-75
2023/08/19 12:18:14;;;;;;;18.17;14.27;;;28.80;93.70;;;;;;5035380;28;20463;-75
2023/08/19 12:20:42;;;;;;;22.10;15.70;;;28.60;96.30;;;;;;5033219;28;20447;-77
2023/08/19 12:23:10;;;;;;;18.33;15.27;;;28.50;98.00;;;;;;5037601;28;20411;-76
2023/08/19 12:25:48;;;;;;;19.03;15.03;;;28.40;99.70;;;;;;5031207;28;20414;-76
2023/08/19 12:28:16;;;;;;;18.40;15.33;;;28.40;99.90;;;;;;5029255;28;20460;-77
2023/08/19 12:30:45;;;;;;;17.43;15.37;;;28.40;99.90;;;;;;5031337;28;20533;-75
2023/08/19 12:33:14;;;;;;;19.67;13.70;;;28.40;99.90;;;;;;5035063;28;20430;-74
2023/08/19 12:35:44;;;;;;;16.80;13.97;;;28.80;99.90;;;;;;5035577;28;20234;-75
2023/08/19 12:38:13;;;;;;;21.93;14.47;;;29.50;98.80;;;;;;5035722;28;20523;-75